createdAt,value
2022-11-22T00:00:42.145Z,51.63
2022-11-22T00:03:09.183Z,49.25
2022-11-22T00:05:36.228Z,51.03
2022-11-22T00:08:04.140Z,50.50
2022-11-22T00:10:31.745Z,43.28
2022-11-22T00:12:58.754Z,38.42
2022-11-22T00:15:25.862Z,39.35
2022-11-22T00:17:52.812Z,36.38
2022-11-22T00:20:19.759Z,35.40
2022-11-22T00:22:46.780Z,32.42
2022-11-22T00:25:14.737Z,35.72
2022-11-22T00:27:41.735Z,34.15
2022-11-22T00:30:09.351Z,35.33
2022-11-22T00:32:36.358Z,33.22
2022-11-22T00:35:03.754Z,33.65
2022-11-22T00:37:30.730Z,31.92
2022-11-22T00:40:01.016Z,33.67
2022-11-22T00:42:28.963Z,31.05
2022-11-22T00:44:59.162Z,28.67
2022-11-22T00:47:26.828Z,27.83
2022-11-22T00:49:53.705Z,27.95
2022-11-22T00:52:20.657Z,28.15
2022-11-22T00:54:53.028Z,29.45
2022-11-22T00:57:21.677Z,27.48
2022-11-22T00:59:48.607Z,28.63
2022-11-22T01:02:15.540Z,25.00
2022-11-22T01:04:42.589Z,27.17
2022-11-22T01:07:10.605Z,25.65
2022-11-22T01:09:37.748Z,23.80
2022-11-22T01:12:05.019Z,26.95
2022-11-22T01:14:32.016Z,24.88
2022-11-22T01:16:58.921Z,24.27
2022-11-22T01:19:25.876Z,26.15
2022-11-22T01:21:52.942Z,25.35
2022-11-22T01:24:19.835Z,26.02
2022-11-22T01:26:46.815Z,25.10
2022-11-22T01:29:14.124Z,26.48
2022-11-22T01:31:41.215Z,23.77
2022-11-22T01:34:08.171Z,24.83
2022-11-22T01:36:35.127Z,24.25
2022-11-22T01:39:02.124Z,24.05
2022-11-22T01:41:29.072Z,24.05
2022-11-22T01:43:56.062Z,24.42
2022-11-22T01:46:33.797Z,21.83
2022-11-22T01:49:10.411Z,22.98
2022-11-22T01:51:46.566Z,23.25
2022-11-22T01:54:18.815Z,23.48
2022-11-22T01:56:50.524Z,24.92
2022-11-22T01:59:21.738Z,22.35
2022-11-22T02:01:49.118Z,24.02
2022-11-22T02:04:18.738Z,22.83
2022-11-22T02:07:03.780Z,24.38
2022-11-22T02:09:32.853Z,23.88
2022-11-22T02:12:03.745Z,21.52
2022-11-22T02:14:31.493Z,24.05
2022-11-22T02:16:58.418Z,24.65
2022-11-22T02:19:43.721Z,25.23
2022-11-22T02:22:35.994Z,23.58
2022-11-22T02:25:16.444Z,24.30
2022-11-22T02:27:43.795Z,25.13
2022-11-22T02:30:11.478Z,24.35
2022-11-22T02:32:38.372Z,24.73
2022-11-22T02:35:21.633Z,25.98
2022-11-22T02:38:01.032Z,25.20
2022-11-22T02:40:31.685Z,27.00
2022-11-22T02:43:03.162Z,24.67
2022-11-22T02:45:30.121Z,24.50
2022-11-22T02:48:12.591Z,25.13
2022-11-22T02:50:39.803Z,25.50
2022-11-22T02:53:08.483Z,25.13
2022-11-22T02:55:36.310Z,25.63
2022-11-22T02:58:05.851Z,25.58
2022-11-22T03:00:35.061Z,27.90
2022-11-22T03:03:02.173Z,26.63
2022-11-22T03:05:29.256Z,25.55
2022-11-22T03:07:56.202Z,27.10
2022-11-22T03:10:23.282Z,30.27
2022-11-22T03:12:50.232Z,31.67
2022-11-22T03:15:17.266Z,31.05
2022-11-22T03:17:44.244Z,30.83
2022-11-22T03:20:11.301Z,34.13
2022-11-22T03:22:38.213Z,32.00
2022-11-22T03:25:05.634Z,30.75
2022-11-22T03:27:32.554Z,29.70
2022-11-22T03:29:59.531Z,27.52
2022-11-22T03:32:26.420Z,29.73
2022-11-22T03:34:53.318Z,29.55
2022-11-22T03:37:20.392Z,28.23
2022-11-22T03:39:47.310Z,28.70
2022-11-22T03:42:19.755Z,26.10
2022-11-22T03:44:48.466Z,29.08
2022-11-22T03:47:15.427Z,29.63
2022-11-22T03:49:42.473Z,28.42
2022-11-22T03:52:09.837Z,31.20
2022-11-22T03:54:36.765Z,31.23
2022-11-22T03:57:03.755Z,32.22
2022-11-22T03:59:30.902Z,30.92
2022-11-22T04:01:58.033Z,33.72
2022-11-22T04:04:25.225Z,30.45
2022-11-22T04:06:52.151Z,33.42
2022-11-22T04:09:19.166Z,38.35
2022-11-22T04:11:46.164Z,32.78
2022-11-22T04:14:31.747Z,32.95
2022-11-22T04:16:58.744Z,35.22
2022-11-22T04:19:25.749Z,33.80
2022-11-22T04:21:52.674Z,34.13
2022-11-22T04:24:38.039Z,36.00
2022-11-22T04:27:04.971Z,34.05
2022-11-22T04:29:32.289Z,36.60
2022-11-22T04:32:18.119Z,34.55
2022-11-22T04:34:45.443Z,36.28
2022-11-22T04:37:12.439Z,33.63
2022-11-22T04:39:39.446Z,35.00
2022-11-22T04:42:24.801Z,35.22
2022-11-22T04:44:51.726Z,35.30
2022-11-22T04:47:38.584Z,33.75
2022-11-22T04:50:28.084Z,35.63
2022-11-22T04:52:57.677Z,34.33
2022-11-22T04:55:25.048Z,36.13
2022-11-22T04:57:57.532Z,33.75
2022-11-22T05:00:27.633Z,34.28
2022-11-22T05:02:54.724Z,33.80
2022-11-22T05:05:21.747Z,33.65
2022-11-22T05:07:48.821Z,30.55
2022-11-22T05:10:17.317Z,34.92
2022-11-22T05:12:45.882Z,37.53
2022-11-22T05:15:12.936Z,38.08
2022-11-22T05:17:39.871Z,36.92
2022-11-22T05:20:08.157Z,35.97
2022-11-22T05:22:53.767Z,33.72
2022-11-22T05:25:25.238Z,34.70
2022-11-22T05:27:54.416Z,33.38
2022-11-22T05:30:21.379Z,33.67
2022-11-22T05:32:48.410Z,33.80
2022-11-22T05:35:15.873Z,40.67
2022-11-22T05:37:42.778Z,42.78
2022-11-22T05:40:10.679Z,39.83
2022-11-22T05:42:37.618Z,40.42
2022-11-22T05:45:05.119Z,37.88
2022-11-22T05:47:35.631Z,36.95
2022-11-22T05:50:03.129Z,33.70
2022-11-22T05:52:30.333Z,35.38
2022-11-22T05:54:57.369Z,38.50
2022-11-22T05:57:24.379Z,35.97
2022-11-22T05:59:51.344Z,34.95
2022-11-22T06:02:18.716Z,37.70
2022-11-22T06:04:45.869Z,37.95
2022-11-22T06:07:13.042Z,48.47
2022-11-22T06:09:40.027Z,37.70
2022-11-22T06:12:07.472Z,36.63
2022-11-22T06:14:37.353Z,35.33
2022-11-22T06:17:08.598Z,33.40
2022-11-22T06:19:35.607Z,32.90
2022-11-22T06:22:02.506Z,29.48
2022-11-22T06:24:29.454Z,30.77
2022-11-22T06:26:56.374Z,31.60
2022-11-22T06:29:23.268Z,30.90
2022-11-22T06:31:50.223Z,27.35
2022-11-22T06:34:17.152Z,24.67
2022-11-22T06:36:44.154Z,26.42
2022-11-22T06:39:11.172Z,23.65
2022-11-22T06:41:39.820Z,23.88
2022-11-22T06:44:08.796Z,23.30
2022-11-22T06:46:36.922Z,25.35
2022-11-22T06:49:04.200Z,25.73
2022-11-22T06:51:32.424Z,30.88
2022-11-22T06:53:59.484Z,29.23
2022-11-22T06:56:30.618Z,29.33
2022-11-22T06:58:58.327Z,29.15
2022-11-22T07:01:27.927Z,30.45
2022-11-22T07:03:58.551Z,29.30
2022-11-22T07:06:28.456Z,32.20
2022-11-22T07:08:55.924Z,30.55
2022-11-22T07:11:25.612Z,28.73
2022-11-22T07:13:53.158Z,28.52
2022-11-22T07:16:21.758Z,28.83
2022-11-22T07:18:49.118Z,28.45
2022-11-22T07:21:19.300Z,27.55
2022-11-22T07:23:48.050Z,28.42
2022-11-22T07:26:16.885Z,32.08
2022-11-22T07:28:44.586Z,33.95
2022-11-22T07:31:13.766Z,35.67
2022-11-22T07:33:42.319Z,36.08
2022-11-22T07:36:15.214Z,35.30
2022-11-22T07:38:42.175Z,32.75
2022-11-22T07:41:10.093Z,32.17
2022-11-22T07:43:37.457Z,30.85
2022-11-22T07:46:06.805Z,36.60
2022-11-22T07:48:34.194Z,23.05
2022-11-22T07:51:07.589Z,23.95
2022-11-22T07:53:35.898Z,25.02
2022-11-22T07:56:06.718Z,25.45
2022-11-22T07:58:35.035Z,28.08
2022-11-22T08:01:13.860Z,27.77
2022-11-22T08:03:41.182Z,26.10
2022-11-22T08:06:10.938Z,27.83
2022-11-22T08:08:38.132Z,28.60
2022-11-22T08:11:06.507Z,30.05
2022-11-22T08:13:34.135Z,32.88
2022-11-22T08:16:09.779Z,34.30
2022-11-22T08:18:38.267Z,36.28
2022-11-22T08:21:10.942Z,34.80
2022-11-22T08:23:39.027Z,34.38
2022-11-22T08:26:08.147Z,35.67
2022-11-22T08:28:36.051Z,35.13
2022-11-22T08:31:19.091Z,35.15
2022-11-22T08:33:46.743Z,34.05
2022-11-22T08:36:13.690Z,38.13
2022-11-22T08:38:41.668Z,38.78
2022-11-22T08:41:08.627Z,41.22
2022-11-22T08:43:35.848Z,38.67
2022-11-22T08:46:03.508Z,39.17
2022-11-22T08:48:32.410Z,40.33
2022-11-22T08:51:05.687Z,41.03
2022-11-22T08:56:02.347Z,40.22
2022-11-22T08:58:33.573Z,39.88
2022-11-22T09:01:10.821Z,42.83
2022-11-22T09:03:38.349Z,45.45
2022-11-22T09:09:22.177Z,41.35
2022-11-22T09:11:44.308Z,40.75
2022-11-22T09:14:11.223Z,40.80
2022-11-22T09:16:38.255Z,43.25
2022-11-22T09:19:05.216Z,43.55
2022-11-22T09:21:32.408Z,41.08
2022-11-22T09:23:59.370Z,42.97
2022-11-22T09:26:26.310Z,40.72
2022-11-22T09:28:53.452Z,44.35
2022-11-22T09:31:21.736Z,43.00
2022-11-22T09:33:49.573Z,44.72
2022-11-22T09:36:20.636Z,45.08
2022-11-22T09:38:47.926Z,46.38
2022-11-22T09:41:26.123Z,44.90
2022-11-22T09:44:23.249Z,44.85
2022-11-22T09:46:56.774Z,47.40
2022-11-22T09:49:26.790Z,45.97
2022-11-22T09:52:22.877Z,44.72
2022-11-22T09:54:57.940Z,45.90
2022-11-22T09:57:49.181Z,44.40
2022-11-22T10:00:26.017Z,45.42
2022-11-22T10:03:00.832Z,47.80
2022-11-22T10:05:51.154Z,46.58
2022-11-22T10:08:33.040Z,45.17
2022-11-22T10:11:00.925Z,45.13
2022-11-22T10:13:48.577Z,46.35
2022-11-22T10:16:20.020Z,44.53
2022-11-22T10:18:57.188Z,44.15
2022-11-22T10:21:24.142Z,44.83
2022-11-22T10:23:51.126Z,42.25
2022-11-22T10:26:36.901Z,40.50
2022-11-22T10:29:34.019Z,42.05
2022-11-22T10:32:00.926Z,39.65
2022-11-22T10:34:45.636Z,40.50
2022-11-22T10:37:42.579Z,37.83
2022-11-22T10:40:35.340Z,39.25
2022-11-22T10:43:25.891Z,38.67
2022-11-22T10:46:11.503Z,38.13
2022-11-22T10:48:47.328Z,38.33
2022-11-22T10:51:18.997Z,44.30
2022-11-22T10:54:03.120Z,42.15
2022-11-22T10:56:51.868Z,44.65
2022-11-22T10:59:28.743Z,42.53
2022-11-22T11:02:10.180Z,39.95
2022-11-22T11:04:40.150Z,38.40
2022-11-22T11:07:16.786Z,34.83
2022-11-22T11:10:10.664Z,34.55
2022-11-22T11:12:49.027Z,25.27
2022-11-22T11:15:21.970Z,27.35
2022-11-22T11:17:58.199Z,29.23
2022-11-22T11:20:33.546Z,29.38
2022-11-22T11:23:14.883Z,28.52
2022-11-22T11:25:45.042Z,35.28
2022-11-22T11:28:30.179Z,24.15
2022-11-22T11:31:09.952Z,19.40
2022-11-22T11:33:39.001Z,22.75
2022-11-22T11:36:10.440Z,19.98
2022-11-22T11:38:37.531Z,21.35
2022-11-22T11:41:22.708Z,22.55
2022-11-22T11:43:51.160Z,21.90
2022-11-22T11:46:21.244Z,21.15
2022-11-22T11:48:49.928Z,21.33
2022-11-22T11:51:22.945Z,23.13
2022-11-22T11:54:11.789Z,23.42
2022-11-22T11:56:41.421Z,20.95
2022-11-22T11:59:15.026Z,20.42
2022-11-22T12:02:10.013Z,21.75
2022-11-22T12:04:48.692Z,20.27
2022-11-22T12:07:35.186Z,19.48
2022-11-22T12:10:23.399Z,20.38
2022-11-22T12:13:05.726Z,20.15
2022-11-22T12:16:04.886Z,19.42
2022-11-22T12:18:31.906Z,16.52
2022-11-22T12:21:29.757Z,17.83
2022-11-22T12:24:26.848Z,16.40
2022-11-22T12:26:50.234Z,16.08
2022-11-22T12:29:17.245Z,15.30
2022-11-22T12:32:00.447Z,16.35
2022-11-22T12:34:34.135Z,15.40
2022-11-22T12:37:10.888Z,14.20
2022-11-22T12:39:38.519Z,14.82
2022-11-22T12:42:11.946Z,18.00
2022-11-22T12:44:45.482Z,21.30
2022-11-22T12:47:24.565Z,20.02
2022-11-22T12:50:03.102Z,20.05
2022-11-22T12:52:37.472Z,19.45
2022-11-22T12:55:16.270Z,17.45
2022-11-22T12:58:07.706Z,18.20
2022-11-22T13:00:47.683Z,16.90
2022-11-22T13:03:21.114Z,16.98
2022-11-22T13:05:54.246Z,18.23
2022-11-22T13:10:59.664Z,18.17
2022-11-22T13:13:39.066Z,17.33
2022-11-22T13:16:11.463Z,16.63
2022-11-22T13:18:43.335Z,15.98
2022-11-22T13:21:24.229Z,16.52
2022-11-22T13:24:09.840Z,17.38
2022-11-22T13:27:07.271Z,17.02
2022-11-22T13:29:36.598Z,16.08
2022-11-22T13:32:07.172Z,16.10
2022-11-22T13:34:36.652Z,17.25
2022-11-22T13:37:11.780Z,14.82
2022-11-22T13:39:45.552Z,16.52
2022-11-22T13:42:17.778Z,15.43
2022-11-22T13:45:20.995Z,15.82
2022-11-22T13:47:48.695Z,17.00
2022-11-22T13:50:40.419Z,17.55
2022-11-22T13:53:19.828Z,16.88
2022-11-22T13:55:47.444Z,17.83
2022-11-22T13:58:26.257Z,16.70
2022-11-22T14:01:00.010Z,17.48
2022-11-22T14:03:41.738Z,17.15
2022-11-22T14:06:22.005Z,17.88
2022-11-22T14:08:49.268Z,15.70
2022-11-22T14:11:42.015Z,16.00
2022-11-22T14:14:26.427Z,17.63
2022-11-22T14:16:59.404Z,17.65
2022-11-22T14:19:55.509Z,16.25
2022-11-22T14:22:31.091Z,16.50
2022-11-22T14:25:19.609Z,16.85
2022-11-22T14:28:21.950Z,17.27
2022-11-22T14:30:51.921Z,17.88
2022-11-22T14:33:30.874Z,17.73
2022-11-22T14:36:06.964Z,17.20
2022-11-22T14:38:38.753Z,15.05
2022-11-22T14:41:27.909Z,14.45
2022-11-22T14:44:10.496Z,14.45
2022-11-22T14:47:02.868Z,13.93
2022-11-22T14:49:43.398Z,14.30
2022-11-22T14:52:26.498Z,14.93
2022-11-22T14:55:01.777Z,16.48
2022-11-22T14:57:32.150Z,16.45
2022-11-22T15:00:18.226Z,16.20
2022-11-22T15:03:09.636Z,18.13
2022-11-22T15:09:12.947Z,18.17
2022-11-22T15:09:23.401Z,17.02
2022-11-22T15:12:07.930Z,15.38
2022-11-22T15:59:44.261Z,21.55
2022-11-22T16:02:15.141Z,18.15
2022-11-22T16:06:04.484Z,20.48
2022-11-22T16:07:43.596Z,20.40
2022-11-22T16:10:23.987Z,20.63
2022-11-22T16:12:52.726Z,20.50
2022-11-22T16:15:37.137Z,20.20
2022-11-22T16:18:12.444Z,18.65
2022-11-22T16:20:41.528Z,19.38
2022-11-22T16:23:14.346Z,19.85
2022-11-22T16:25:42.958Z,20.80
2022-11-22T16:28:35.168Z,21.42
2022-11-22T16:31:16.244Z,20.98
2022-11-22T16:33:44.423Z,21.98
2022-11-22T16:36:16.303Z,20.83
2022-11-22T16:38:44.392Z,19.48
2022-11-22T16:41:25.884Z,21.48
2022-11-22T16:44:06.780Z,19.23
2022-11-22T16:46:33.722Z,18.08
2022-11-22T16:49:00.619Z,15.90
2022-11-22T16:51:29.465Z,19.50
2022-11-22T16:54:00.249Z,18.25
2022-11-22T16:56:29.667Z,17.95
2022-11-22T16:58:58.518Z,17.77
2022-11-22T17:01:31.168Z,16.65
2022-11-22T17:03:59.446Z,17.92
2022-11-22T17:06:28.604Z,17.17
2022-11-22T17:08:57.696Z,20.50
2022-11-22T17:11:30.725Z,19.63
2022-11-22T17:13:58.905Z,19.75
2022-11-22T17:16:25.804Z,18.50
2022-11-22T17:18:53.427Z,16.23
2022-11-22T17:21:32.749Z,17.48
2022-11-22T17:24:05.846Z,17.38
2022-11-22T17:26:34.773Z,17.55
2022-11-22T17:29:02.132Z,17.35
2022-11-22T17:31:29.424Z,18.85
2022-11-22T17:33:58.717Z,24.45
2022-11-22T17:36:34.063Z,26.52
2022-11-22T17:39:06.168Z,37.88
2022-11-22T17:41:33.888Z,43.45
2022-11-22T17:44:01.624Z,32.00
2022-11-22T17:46:29.914Z,26.42
2022-11-22T17:48:59.633Z,26.88
2022-11-22T17:51:28.740Z,27.15
2022-11-22T17:53:58.370Z,27.75
2022-11-22T17:56:27.184Z,27.20
2022-11-22T17:58:54.145Z,27.48
2022-11-22T18:01:22.676Z,26.45
2022-11-22T18:03:49.777Z,28.02
2022-11-22T18:06:18.274Z,27.35
2022-11-22T18:08:47.462Z,27.05
2022-11-22T18:11:15.850Z,25.75
2022-11-22T18:13:43.108Z,25.85
2022-11-22T18:16:15.858Z,25.50
2022-11-22T18:18:58.781Z,24.55
2022-11-22T18:21:29.568Z,26.23
2022-11-22T18:23:58.381Z,25.95
2022-11-22T18:26:41.865Z,24.90
2022-11-22T18:29:41.067Z,25.80
2022-11-22T18:31:58.204Z,26.25
2022-11-22T18:34:25.904Z,25.35
2022-11-22T18:36:55.911Z,24.77
2022-11-22T18:39:25.037Z,24.05
2022-11-22T18:41:52.444Z,26.27
2022-11-22T18:44:19.606Z,24.45
2022-11-22T18:46:49.419Z,25.00
2022-11-22T18:49:16.601Z,25.38
2022-11-22T18:51:43.880Z,24.15
2022-11-22T18:54:11.104Z,24.27
2022-11-22T18:56:40.669Z,24.35
2022-11-22T18:59:10.710Z,25.85
2022-11-22T19:01:37.907Z,22.90
2022-11-22T19:04:05.316Z,24.77
2022-11-22T19:06:37.153Z,23.90
2022-11-22T19:09:04.684Z,24.42
2022-11-22T19:11:32.322Z,24.13
2022-11-22T19:14:01.340Z,25.20
2022-11-22T19:16:30.889Z,23.05
2022-11-22T19:18:59.027Z,23.35
2022-11-22T19:21:28.449Z,22.73
2022-11-22T19:24:05.835Z,24.17
2022-11-22T19:26:32.868Z,21.90
2022-11-22T19:29:00.380Z,23.48
2022-11-22T19:31:29.436Z,20.33
2022-11-22T19:33:57.762Z,21.38
2022-11-22T19:36:33.779Z,22.35
2022-11-22T19:39:04.496Z,25.38
2022-11-22T19:41:33.377Z,22.90
2022-11-22T19:46:43.061Z,24.85
2022-11-22T19:49:12.120Z,26.27
2022-11-22T19:51:41.933Z,30.85
2022-11-22T19:54:15.044Z,33.78
2022-11-22T19:56:46.300Z,32.30
2022-11-22T19:59:16.782Z,32.92
2022-11-22T20:01:48.423Z,34.75
2022-11-22T20:04:16.207Z,40.63
2022-11-22T20:06:49.742Z,37.03
2022-11-22T20:09:17.437Z,31.95
2022-11-22T20:11:45.724Z,30.77
2022-11-22T20:14:12.765Z,29.92
2022-11-22T20:16:43.003Z,33.72
2022-11-22T20:19:12.345Z,32.58
2022-11-22T20:21:40.903Z,38.60
2022-11-22T20:24:08.256Z,36.95
2022-11-22T20:26:35.493Z,33.97
2022-11-22T20:29:06.110Z,35.83
2022-11-22T20:31:40.888Z,35.30
2022-11-22T20:34:08.819Z,36.08
2022-11-22T20:36:36.490Z,33.92
2022-11-22T20:39:09.701Z,33.42
2022-11-22T20:41:37.883Z,34.22
2022-11-22T20:44:05.594Z,29.58
2022-11-22T20:46:36.494Z,30.80
2022-11-22T20:49:04.144Z,29.27
2022-11-22T20:51:32.014Z,32.63
2022-11-22T20:54:00.353Z,30.13
2022-11-22T20:56:28.255Z,29.70
2022-11-22T20:58:55.877Z,30.23
2022-11-22T21:01:25.541Z,26.63
2022-11-22T21:03:54.009Z,25.17
2022-11-22T21:06:23.021Z,23.85
2022-11-22T21:08:50.892Z,27.08
2022-11-22T21:11:23.799Z,26.30
2022-11-22T21:13:52.353Z,29.77
2022-11-22T21:16:24.184Z,34.97
2022-11-22T21:19:01.536Z,37.78
2022-11-22T21:21:30.270Z,30.45
2022-11-22T21:24:02.391Z,29.33
2022-11-22T21:26:30.352Z,28.52
2022-11-22T21:28:57.939Z,26.55
2022-11-22T21:31:25.760Z,26.77
2022-11-22T21:33:53.286Z,26.45
2022-11-22T21:36:20.879Z,25.10
2022-11-22T21:38:48.238Z,23.58
2022-11-22T21:41:46.914Z,24.05
2022-11-22T21:44:04.925Z,22.98
2022-11-22T21:46:31.874Z,25.67
2022-11-22T21:48:58.798Z,21.73
2022-11-22T21:51:26.568Z,17.42
2022-11-22T21:54:01.255Z,17.88
2022-11-22T21:56:28.878Z,16.23
2022-11-22T21:58:56.416Z,15.65
2022-11-22T22:01:24.102Z,13.98
2022-11-22T22:03:51.521Z,13.13
2022-11-22T22:06:19.073Z,13.07
2022-11-22T22:08:46.116Z,12.45
2022-11-22T22:11:13.149Z,11.43
2022-11-22T22:13:41.304Z,10.38
2022-11-22T22:16:13.089Z,9.85
2022-11-22T22:18:40.060Z,11.73
2022-11-22T22:21:08.842Z,10.65
2022-11-22T22:23:38.044Z,11.88
2022-11-22T22:26:08.075Z,12.80
2022-11-22T22:28:37.637Z,11.43
2022-11-22T22:31:09.268Z,11.05
2022-11-22T22:33:37.627Z,9.80
2022-11-22T22:36:05.867Z,10.00
2022-11-22T22:38:33.662Z,9.63
2022-11-22T22:41:02.743Z,9.40
2022-11-22T22:43:32.092Z,9.60
2022-11-22T22:46:14.816Z,11.40
2022-11-22T22:48:42.260Z,11.45
2022-11-22T22:51:13.755Z,10.25
2022-11-22T22:53:41.218Z,9.65
2022-11-22T22:56:08.727Z,9.55
2022-11-22T22:58:36.069Z,9.23
2022-11-22T23:01:08.588Z,10.05
2022-11-22T23:03:36.272Z,8.50
2022-11-22T23:06:11.468Z,8.13
2022-11-22T23:08:39.446Z,7.95
2022-11-22T23:11:08.942Z,7.90
2022-11-22T23:13:37.877Z,7.28
2022-11-22T23:16:06.788Z,7.07
2022-11-22T23:18:38.930Z,7.15
2022-11-22T23:21:08.319Z,5.93
2022-11-22T23:23:35.481Z,5.30
2022-11-22T23:26:04.323Z,4.80
2022-11-22T23:28:31.601Z,4.93
2022-11-22T23:31:13.797Z,4.95
2022-11-22T23:33:42.360Z,4.22
2022-11-22T23:36:15.549Z,4.40
2022-11-22T23:38:43.185Z,4.30
2022-11-22T23:41:15.289Z,4.15
2022-11-22T23:43:43.039Z,4.45
2022-11-22T23:46:17.934Z,4.13
2022-11-22T23:48:46.603Z,3.38
2022-11-22T23:51:15.215Z,3.40
2022-11-22T23:53:42.249Z,3.70
2022-11-22T23:56:17.951Z,3.53
2022-11-22T23:58:48.821Z,2.92
